Time;durP1;ratioP1;P1;durP2;ratioP2;P2;SDS_P1;SDS_P2;PMS_P1;PMS_P2;Temp;Humidity;BMP_temperature;BMP_pressure;BME280_temperature;BME280_humidity;BME280_pressure;Samples;Min_cycle;Max_cycle;Signal;HPM_P1;HPM_P2
2024/02/07 00:00:33;;;;;;;10.10;3.50;;;;;;;-128.00;-1.00;-1.00;105704;1253;1004364;-79
2024/02/07 00:03:20;;;;;;;3.80;1.50;;;;;;;-128.00;-1.00;-1.00;105686;1253;1048217;-75
2024/02/07 00:05:48;;;;;;;5.80;2.60;;;;;;;-128.00;-1.00;-1.00;105685;1253;1003970;-75
2024/02/07 00:08:15;;;;;;;7.40;2.80;;;;;;;-128.00;-1.00;-1.00;105686;1253;1003847;-75
2024/02/07 00:10:42;;;;;;;7.30;3.40;;;;;;;-128.00;-1.00;-1.00;105660;1252;1004709;-75
2024/02/07 00:13:08;;;;;;;6.40;2.70;;;;;;;-128.00;-1.00;-1.00;105617;1253;1004546;-79
2024/02/07 00:15:35;;;;;;;4.60;2.40;;;;;;;-128.00;-1.00;-1.00;103981;1255;1004027;-80
2024/02/07 00:18:01;;;;;;;13.30;6.80;;;;;;;-128.00;-1.00;-1.00;103259;1253;1004309;-79
2024/02/07 00:20:27;;;;;;;9.10;4.50;;;;;;;-128.00;-1.00;-1.00;103285;1253;1004991;-75
2024/02/07 00:22:54;;;;;;;9.60;2.80;;;;;;;-128.00;-1.00;-1.00;103285;1252;1004540;-79
2024/02/07 00:25:20;;;;;;;12.00;3.00;;;;;;;-128.00;-1.00;-1.00;103117;1256;1004734;-79
2024/02/07 00:27:48;;;;;;;4.70;2.10;;;;;;;-128.00;-1.00;-1.00;103668;1253;1004433;-75
2024/02/07 00:30:15;;;;;;;3.60;2.00;;;;;;;-128.00;-1.00;-1.00;103747;1253;1003709;-79
2024/02/07 00:32:41;;;;;;;6.50;2.70;;;;;;;-128.00;-1.00;-1.00;103166;1253;1004787;-75
2024/02/07 00:35:08;;;;;;;4.50;1.80;;;;;;;-128.00;-1.00;-1.00;103124;1253;1004815;-74
2024/02/07 00:37:35;;;;;;;3.40;1.80;;;;;;;-128.00;-1.00;-1.00;103103;1253;1003764;-74
2024/02/07 00:40:02;;;;;;;4.10;2.60;;;;;;;-128.00;-1.00;-1.00;103270;1252;1004822;-75
2024/02/07 00:42:29;;;;;;;4.50;1.90;;;;;;;-128.00;-1.00;-1.00;104038;1253;1004622;-79
2024/02/07 00:44:56;;;;;;;8.50;2.30;;;;;;;-128.00;-1.00;-1.00;103738;1253;1004827;-75
2024/02/07 00:47:23;;;;;;;8.10;3.20;;;;;;;-128.00;-1.00;-1.00;103555;1253;1004526;-75
2024/02/07 00:49:49;;;;;;;8.00;2.40;;;;;;;-128.00;-1.00;-1.00;103505;1251;1005518;-79
2024/02/07 00:52:16;;;;;;;5.50;2.30;;;;;;;-128.00;-1.00;-1.00;103393;1253;1004139;-79
2024/02/07 00:54:42;;;;;;;5.40;3.10;;;;;;;-128.00;-1.00;-1.00;103270;1252;1005604;-75
2024/02/07 00:57:08;;;;;;;12.20;3.20;;;;;;;-128.00;-1.00;-1.00;103299;1253;1004149;-79
2024/02/07 00:59:35;;;;;;;8.90;2.60;;;;;;;-128.00;-1.00;-1.00;103288;1253;1004891;-79
2024/02/07 01:02:02;;;;;;;5.20;2.60;;;;;;;-128.00;-1.00;-1.00;103282;1253;1003868;-79
2024/02/07 01:04:28;;;;;;;9.00;3.00;;;;;;;-128.00;-1.00;-1.00;103390;1255;1004157;-79
2024/02/07 01:06:55;;;;;;;5.00;2.40;;;;;;;-128.00;-1.00;-1.00;103267;1253;1004877;-79
2024/02/07 01:09:21;;;;;;;7.00;2.00;;;;;;;-128.00;-1.00;-1.00;103441;1253;1004852;-79
2024/02/07 01:11:48;;;;;;;4.20;2.60;;;;;;;-128.00;-1.00;-1.00;103320;1252;1004134;-75
2024/02/07 01:14:14;;;;;;;2.80;1.80;;;;;;;-128.00;-1.00;-1.00;103416;1253;1005106;-79
2024/02/07 01:16:40;;;;;;;5.80;2.30;;;;;;;-128.00;-1.00;-1.00;103255;1256;1004655;-79
2024/02/07 01:19:07;;;;;;;4.40;2.10;;;;;;;-128.00;-1.00;-1.00;103278;1253;1004174;-75
2024/02/07 01:21:33;;;;;;;3.90;1.40;;;;;;;-128.00;-1.00;-1.00;103247;1254;1005871;-75
2024/02/07 01:24:00;;;;;;;7.80;2.40;;;;;;;-128.00;-1.00;-1.00;103252;1253;1003874;-75
2024/02/07 01:26:26;;;;;;;8.30;3.50;;;;;;;-128.00;-1.00;-1.00;103238;1253;1003736;-79
2024/02/07 01:28:53;;;;;;;6.00;3.30;;;;;;;-128.00;-1.00;-1.00;103236;1253;1004592;-75
2024/02/07 01:31:21;;;;;;;5.10;1.90;;;;;;;-128.00;-1.00;-1.00;103195;1255;1004308;-79
2024/02/07 01:33:47;;;;;;;3.90;2.00;;;;;;;-128.00;-1.00;-1.00;103286;1253;1005025;-79
2024/02/07 01:36:14;;;;;;;8.50;3.90;;;;;;;-128.00;-1.00;-1.00;103239;1253;1003837;-80
2024/02/07 01:38:41;;;;;;;5.80;3.20;;;;;;;-128.00;-1.00;-1.00;103312;1252;1004796;-79
2024/02/07 01:41:08;;;;;;;5.40;1.70;;;;;;;-128.00;-1.00;-1.00;103319;1253;1004783;-79
2024/02/07 01:43:34;;;;;;;5.00;2.40;;;;;;;-128.00;-1.00;-1.00;103325;1253;1004864;-75
2024/02/07 01:46:01;;;;;;;6.10;2.20;;;;;;;-128.00;-1.00;-1.00;103244;1253;1004585;-75
2024/02/07 01:48:28;;;;;;;12.10;5.70;;;;;;;-128.00;-1.00;-1.00;103189;1253;1004782;-79
2024/02/07 01:50:54;;;;;;;7.00;2.70;;;;;;;-128.00;-1.00;-1.00;103235;1253;1004094;-75
2024/02/07 01:53:21;;;;;;;4.80;2.30;;;;;;;-128.00;-1.00;-1.00;104402;1253;1004776;-79
2024/02/07 01:55:49;;;;;;;3.90;1.90;;;;;;;-128.00;-1.00;-1.00;104016;1253;1005170;-75
2024/02/07 01:58:18;;;;;;;6.70;1.80;;;;;;;-128.00;-1.00;-1.00;105649;1253;1004975;-79
2024/02/07 02:00:45;;;;;;;5.10;2.10;;;;;;;-128.00;-1.00;-1.00;105659;1253;1058762;-79
2024/02/07 02:03:13;;;;;;;3.70;1.70;;;;;;;-128.00;-1.00;-1.00;105653;1253;1004961;-79
2024/02/07 02:05:39;;;;;;;10.50;2.20;;;;;;;-128.00;-1.00;-1.00;105678;1253;1004461;-79
2024/02/07 02:08:06;;;;;;;5.50;2.10;;;;;;;-128.00;-1.00;-1.00;105448;1253;1003939;-75
2024/02/07 02:10:33;;;;;;;2.90;1.70;;;;;;;-128.00;-1.00;-1.00;103243;1255;1005158;-75
2024/02/07 02:12:59;;;;;;;6.70;1.60;;;;;;;-128.00;-1.00;-1.00;103305;1253;1004811;-75
2024/02/07 02:15:25;;;;;;;8.40;2.50;;;;;;;-128.00;-1.00;-1.00;103284;1253;1004546;-75
2024/02/07 02:17:53;;;;;;;4.90;2.70;;;;;;;-128.00;-1.00;-1.00;103193;1254;1004527;-75
2024/02/07 02:20:19;;;;;;;4.80;1.60;;;;;;;-128.00;-1.00;-1.00;103448;1254;1004211;-75
2024/02/07 02:23:17;;;;;;;4.80;1.60;;;;;;;-128.00;-1.00;-1.00;104033;1253;1005081;-79
2024/02/07 02:25:47;;;;;;;6.10;1.90;;;;;;;-128.00;-1.00;-1.00;105597;1253;1059863;-79
2024/02/07 02:28:38;;;;;;;8.60;2.20;;;;;;;-128.00;-1.00;-1.00;105695;1252;1044556;-78
2024/02/07 02:31:07;;;;;;;4.10;1.60;;;;;;;-128.00;-1.00;-1.00;105681;1253;1047097;-78
2024/02/07 02:33:34;;;;;;;4.60;1.70;;;;;;;-128.00;-1.00;-1.00;105684;1253;1060858;-75
2024/02/07 02:36:00;;;;;;;11.90;3.30;;;;;;;-128.00;-1.00;-1.00;105664;1253;1004021;-79
2024/02/07 02:38:27;;;;;;;3.60;1.90;;;;;;;-128.00;-1.00;-1.00;105681;1253;1004878;-79
2024/02/07 02:40:54;;;;;;;6.10;2.00;;;;;;;-128.00;-1.00;-1.00;105649;1253;1003466;-79
2024/02/07 02:43:24;;;;;;;2.50;0.80;;;;;;;-128.00;-1.00;-1.00;105696;1253;1004864;-75
2024/02/07 02:45:51;;;;;;;4.90;1.70;;;;;;;-128.00;-1.00;-1.00;105651;1253;1061586;-75
2024/02/07 02:48:18;;;;;;;4.20;1.40;;;;;;;-128.00;-1.00;-1.00;105692;1252;1004451;-79
2024/02/07 02:50:45;;;;;;;6.20;1.80;;;;;;;-128.00;-1.00;-1.00;105665;1252;1004947;-75
2024/02/07 02:53:12;;;;;;;5.80;2.50;;;;;;;-128.00;-1.00;-1.00;105683;1253;1004971;-79
2024/02/07 02:55:39;;;;;;;4.80;2.80;;;;;;;-128.00;-1.00;-1.00;105687;1253;1004092;-75
2024/02/07 02:58:05;;;;;;;6.40;2.10;;;;;;;-128.00;-1.00;-1.00;105671;1253;1004360;-75
2024/02/07 03:00:32;;;;;;;3.80;2.20;;;;;;;-128.00;-1.00;-1.00;105719;1253;1003325;-79
2024/02/07 03:02:58;;;;;;;4.50;1.80;;;;;;;-128.00;-1.00;-1.00;105657;1253;1005276;-79
2024/02/07 03:05:45;;;;;;;5.40;2.40;;;;;;;-128.00;-1.00;-1.00;105664;1253;1004398;-75
2024/02/07 03:08:28;;;;;;;4.40;1.90;;;;;;;-128.00;-1.00;-1.00;103403;1253;1047811;-75
2024/02/07 03:10:55;;;;;;;2.50;1.30;;;;;;;-128.00;-1.00;-1.00;103266;1253;1060917;-75
2024/02/07 03:13:24;;;;;;;7.50;1.80;;;;;;;-128.00;-1.00;-1.00;104849;1255;1004665;-79
2024/02/07 03:15:52;;;;;;;7.40;2.50;;;;;;;-128.00;-1.00;-1.00;103245;1253;1062579;-75
2024/02/07 03:18:20;;;;;;;10.20;1.90;;;;;;;-128.00;-1.00;-1.00;105635;1253;1004210;-75
2024/02/07 03:20:49;;;;;;;10.30;1.80;;;;;;;-128.00;-1.00;-1.00;105644;1253;1004791;-75
2024/02/07 03:23:15;;;;;;;4.40;2.00;;;;;;;-128.00;-1.00;-1.00;105666;1253;1061163;-75
2024/02/07 03:25:42;;;;;;;3.10;1.60;;;;;;;-128.00;-1.00;-1.00;104923;1255;1003527;-75
2024/02/07 03:28:10;;;;;;;6.10;1.70;;;;;;;-128.00;-1.00;-1.00;103353;1253;1005091;-79
2024/02/07 03:30:37;;;;;;;7.70;3.20;;;;;;;-128.00;-1.00;-1.00;103255;1253;1046467;-75
2024/02/07 03:33:04;;;;;;;4.50;1.60;;;;;;;-128.00;-1.00;-1.00;103353;1253;1003494;-79
2024/02/07 03:35:32;;;;;;;3.90;1.50;;;;;;;-128.00;-1.00;-1.00;103516;1256;1003518;-80
2024/02/07 03:38:00;;;;;;;6.20;3.70;;;;;;;-128.00;-1.00;-1.00;103485;1253;1059088;-79
2024/02/07 03:40:26;;;;;;;9.60;1.60;;;;;;;-128.00;-1.00;-1.00;103334;1253;1004147;-75
2024/02/07 03:42:53;;;;;;;3.40;1.80;;;;;;;-128.00;-1.00;-1.00;103336;1253;1004548;-79
2024/02/07 03:45:20;;;;;;;5.80;1.70;;;;;;;-128.00;-1.00;-1.00;103313;1256;1005053;-75
2024/02/07 03:47:47;;;;;;;15.10;7.90;;;;;;;-128.00;-1.00;-1.00;103327;1254;1005233;-75
2024/02/07 03:50:16;;;;;;;9.40;2.40;;;;;;;-128.00;-1.00;-1.00;103329;1255;1004113;-75
2024/02/07 03:52:44;;;;;;;170.40;104.40;;;;;;;-128.00;-1.00;-1.00;104131;1253;1059706;-75
2024/02/07 03:55:11;;;;;;;52.10;31.00;;;;;;;-128.00;-1.00;-1.00;105688;1252;1004381;-79
2024/02/07 03:57:37;;;;;;;188.00;96.70;;;;;;;-128.00;-1.00;-1.00;105670;1252;1004026;-75
2024/02/07 04:00:13;;;;;;;91.60;52.70;;;;;;;-128.00;-1.00;-1.00;105558;1253;1003695;-75
2024/02/07 04:02:40;;;;;;;63.20;42.60;;;;;;;-128.00;-1.00;-1.00;105660;1253;1057619;-79
2024/02/07 04:05:11;;;;;;;55.70;40.10;;;;;;;-128.00;-1.00;-1.00;105663;1251;1004975;-75
2024/02/07 04:07:37;;;;;;;9.50;6.40;;;;;;;-128.00;-1.00;-1.00;105668;1255;1044866;-75
2024/02/07 04:10:05;;;;;;;7.80;2.30;;;;;;;-128.00;-1.00;-1.00;105670;1253;1005079;-79
2024/02/07 05:15:27;;;;;;;16.80;8.10;;;;;;;-128.00;-1.00;-1.00;105622;1254;1045399;-79
2024/02/07 05:17:53;;;;;;;20.80;14.70;;;;;;;-128.00;-1.00;-1.00;105685;1253;1004646;-79
2024/02/07 05:20:20;;;;;;;8.00;5.40;;;;;;;-128.00;-1.00;-1.00;105633;1253;1003359;-79
2024/02/07 05:22:47;;;;;;;11.10;2.50;;;;;;;-128.00;-1.00;-1.00;105638;1254;1004459;-75
2024/02/07 05:25:14;;;;;;;2.50;1.00;;;;;;;-128.00;-1.00;-1.00;105624;1253;1003756;-75
2024/02/07 05:27:40;;;;;;;5.70;2.50;;;;;;;-128.00;-1.00;-1.00;105262;1254;1004782;-79
2024/02/07 05:30:08;;;;;;;8.20;3.60;;;;;;;-128.00;-1.00;-1.00;103242;1253;1004622;-75
2024/02/07 05:32:35;;;;;;;3.70;2.10;;;;;;;-128.00;-1.00;-1.00;103371;1253;1005382;-75
2024/02/07 05:35:02;;;;;;;8.90;3.00;;;;;;;-128.00;-1.00;-1.00;104364;1254;1003828;-75
2024/02/07 05:37:30;;;;;;;6.90;1.50;;;;;;;-128.00;-1.00;-1.00;103256;1257;1004283;-79
2024/02/07 05:39:56;;;;;;;5.70;2.10;;;;;;;-128.00;-1.00;-1.00;103205;1253;1004072;-75
2024/02/07 05:42:23;;;;;;;7.20;1.70;;;;;;;-128.00;-1.00;-1.00;103353;1257;1007181;-75
2024/02/07 05:44:50;;;;;;;3.40;1.60;;;;;;;-128.00;-1.00;-1.00;103114;1254;1005202;-75
2024/02/07 05:47:16;;;;;;;4.30;1.40;;;;;;;-128.00;-1.00;-1.00;103276;1257;1005515;-79
2024/02/07 05:49:43;;;;;;;5.60;1.70;;;;;;;-128.00;-1.00;-1.00;103188;1257;1004144;-75
2024/02/07 05:52:10;;;;;;;16.30;13.80;;;;;;;-128.00;-1.00;-1.00;103793;1254;1003557;-79
2024/02/07 05:54:37;;;;;;;4.70;1.50;;;;;;;-128.00;-1.00;-1.00;104958;1253;1003701;-75
2024/02/07 05:57:03;;;;;;;9.70;1.70;;;;;;;-128.00;-1.00;-1.00;103250;1253;1004535;-75
2024/02/07 05:59:30;;;;;;;2.90;1.80;;;;;;;-128.00;-1.00;-1.00;103273;1254;1004572;-79
2024/02/07 06:01:57;;;;;;;3.20;1.50;;;;;;;-128.00;-1.00;-1.00;103284;1252;1004712;-75
2024/02/07 06:04:23;;;;;;;3.10;1.60;;;;;;;-128.00;-1.00;-1.00;103386;1257;1003675;-75
2024/02/07 06:06:50;;;;;;;4.80;1.60;;;;;;;-128.00;-1.00;-1.00;103375;1254;1004626;-75
2024/02/07 06:09:16;;;;;;;4.40;1.90;;;;;;;-128.00;-1.00;-1.00;103360;1256;1004807;-74
2024/02/07 06:11:44;;;;;;;3.40;1.70;;;;;;;-128.00;-1.00;-1.00;103376;1252;1004339;-79
2024/02/07 06:14:11;;;;;;;2.70;1.70;;;;;;;-128.00;-1.00;-1.00;105616;1254;1005174;-75
2024/02/07 06:16:39;;;;;;;10.00;4.10;;;;;;;-128.00;-1.00;-1.00;104601;1256;1004304;-75
2024/02/07 06:19:05;;;;;;;11.80;2.20;;;;;;;-128.00;-1.00;-1.00;103435;1253;1005310;-75
2024/02/07 06:21:32;;;;;;;6.20;4.60;;;;;;;-128.00;-1.00;-1.00;103341;1253;1004591;-75
2024/02/07 06:23:58;;;;;;;8.70;2.20;;;;;;;-128.00;-1.00;-1.00;103339;1254;1004291;-75
2024/02/07 06:26:25;;;;;;;3.60;1.70;;;;;;;-128.00;-1.00;-1.00;103217;1254;1003607;-79
2024/02/07 06:28:51;;;;;;;5.30;2.90;;;;;;;-128.00;-1.00;-1.00;103254;1254;1004107;-79
2024/02/07 06:31:18;;;;;;;3.20;2.00;;;;;;;-128.00;-1.00;-1.00;103205;1254;1003800;-79
2024/02/07 06:33:44;;;;;;;4.00;1.20;;;;;;;-128.00;-1.00;-1.00;103351;1254;1004428;-75
2024/02/07 06:36:11;;;;;;;8.10;3.50;;;;;;;-128.00;-1.00;-1.00;103272;1252;1005028;-79
2024/02/07 06:38:37;;;;;;;3.70;2.10;;;;;;;-128.00;-1.00;-1.00;103291;1254;1005275;-75
2024/02/07 06:41:05;;;;;;;6.50;2.90;;;;;;;-128.00;-1.00;-1.00;103280;1252;1005022;-79
2024/02/07 06:43:31;;;;;;;6.40;2.20;;;;;;;-128.00;-1.00;-1.00;103810;1254;1004243;-76
2024/02/07 06:46:01;;;;;;;4.00;2.60;;;;;;;-128.00;-1.00;-1.00;105672;1253;1003631;-79
2024/02/07 06:48:28;;;;;;;6.40;2.30;;;;;;;-128.00;-1.00;-1.00;103300;1254;1058581;-80
2024/02/07 06:50:54;;;;;;;10.30;1.40;;;;;;;-128.00;-1.00;-1.00;103359;1254;1004184;-75
2024/02/07 06:53:21;;;;;;;3.70;2.10;;;;;;;-128.00;-1.00;-1.00;103314;1254;1005041;-79
2024/02/07 06:55:47;;;;;;;6.20;4.30;;;;;;;-128.00;-1.00;-1.00;103406;1253;1004994;-79
2024/02/07 06:58:14;;;;;;;6.20;4.80;;;;;;;-128.00;-1.00;-1.00;103601;1254;1006174;-79
2024/02/07 07:00:41;;;;;;;7.50;3.20;;;;;;;-128.00;-1.00;-1.00;103336;1253;1004508;-80
2024/02/07 07:03:07;;;;;;;4.90;1.90;;;;;;;-128.00;-1.00;-1.00;103509;1254;1005531;-74
2024/02/07 07:05:34;;;;;;;5.80;2.20;;;;;;;-128.00;-1.00;-1.00;105535;1254;1004951;-75
2024/02/07 07:08:01;;;;;;;6.60;2.20;;;;;;;-128.00;-1.00;-1.00;105640;1254;1004858;-75
2024/02/07 07:10:27;;;;;;;4.20;2.70;;;;;;;-128.00;-1.00;-1.00;105610;1254;1003912;-75
2024/02/07 07:12:54;;;;;;;3.80;2.00;;;;;;;-128.00;-1.00;-1.00;105652;1254;1004249;-75
2024/02/07 07:15:21;;;;;;;5.50;2.40;;;;;;;-128.00;-1.00;-1.00;105586;1253;1005090;-79
2024/02/07 07:17:47;;;;;;;10.80;2.40;;;;;;;-128.00;-1.00;-1.00;105514;1252;1003849;-79
2024/02/07 07:20:13;;;;;;;3.50;1.80;;;;;;;-128.00;-1.00;-1.00;105610;1253;1004040;-75
2024/02/07 07:22:40;;;;;;;3.80;2.10;;;;;;;-128.00;-1.00;-1.00;105607;1256;1004402;-79
2024/02/07 07:25:07;;;;;;;3.40;1.90;;;;;;;-128.00;-1.00;-1.00;105571;1254;1003404;-79
2024/02/07 07:27:33;;;;;;;4.60;2.00;;;;;;;-128.00;-1.00;-1.00;105546;1254;1004139;-79
2024/02/07 07:30:01;;;;;;;3.90;2.20;;;;;;;-128.00;-1.00;-1.00;105555;1254;1004090;-75
2024/02/07 07:32:27;;;;;;;5.30;2.90;;;;;;;-128.00;-1.00;-1.00;105579;1253;1004103;-79
2024/02/07 07:34:53;;;;;;;7.30;2.60;;;;;;;-128.00;-1.00;-1.00;105649;1255;1004560;-75
2024/02/07 07:37:20;;;;;;;3.00;1.80;;;;;;;-128.00;-1.00;-1.00;105591;1254;1004201;-79
2024/02/07 07:39:47;;;;;;;9.90;2.50;;;;;;;-128.00;-1.00;-1.00;105553;1253;1004011;-79
2024/02/07 07:42:13;;;;;;;5.70;2.70;;;;;;;-128.00;-1.00;-1.00;105561;1252;1004891;-79
2024/02/07 07:44:42;;;;;;;10.30;4.60;;;;;;;-128.00;-1.00;-1.00;104932;1252;1007104;-74
2024/02/07 07:47:08;;;;;;;5.60;4.10;;;;;;;-128.00;-1.00;-1.00;105574;1254;1005191;-79
2024/02/07 07:49:35;;;;;;;10.10;4.10;;;;;;;-128.00;-1.00;-1.00;105617;1254;1004546;-75
2024/02/07 07:52:01;;;;;;;6.70;2.70;;;;;;;-128.00;-1.00;-1.00;105638;1252;1004464;-77
2024/02/07 07:54:27;;;;;;;6.30;2.40;;;;;;;-128.00;-1.00;-1.00;105630;1253;1005237;-75
2024/02/07 07:56:54;;;;;;;6.10;2.60;;;;;;;-128.00;-1.00;-1.00;105615;1253;1003859;-75
2024/02/07 07:59:20;;;;;;;9.30;3.70;;;;;;;-128.00;-1.00;-1.00;105605;1253;1004619;-75
2024/02/07 08:01:55;;;;;;;6.60;1.90;;;;;;;-128.00;-1.00;-1.00;105573;1254;1004526;-78
2024/02/07 08:04:22;;;;;;;4.40;2.10;;;;;;;-128.00;-1.00;-1.00;105567;1253;1059949;-79
2024/02/07 08:06:48;;;;;;;5.70;1.90;;;;;;;-128.00;-1.00;-1.00;105519;1252;1004844;-80
2024/02/07 08:09:15;;;;;;;7.40;2.20;;;;;;;-128.00;-1.00;-1.00;104133;1252;1004420;-74
2024/02/07 08:11:42;;;;;;;7.70;2.80;;;;;;;-128.00;-1.00;-1.00;103448;1254;1004191;-75
2024/02/07 08:14:08;;;;;;;6.90;3.00;;;;;;;-128.00;-1.00;-1.00;103435;1254;1006673;-75
2024/02/07 08:16:35;;;;;;;4.20;2.30;;;;;;;-128.00;-1.00;-1.00;103550;1253;1004373;-75
2024/02/07 08:19:01;;;;;;;7.50;3.00;;;;;;;-128.00;-1.00;-1.00;103340;1254;1004751;-75
2024/02/07 08:21:30;;;;;;;9.20;5.20;;;;;;;-128.00;-1.00;-1.00;103451;1253;1005324;-79
2024/02/07 08:23:57;;;;;;;8.60;5.50;;;;;;;-128.00;-1.00;-1.00;103307;1254;1004866;-75
2024/02/07 08:26:23;;;;;;;14.90;7.90;;;;;;;-128.00;-1.00;-1.00;103460;1254;1004778;-75
2024/02/07 08:28:50;;;;;;;10.20;3.50;;;;;;;-128.00;-1.00;-1.00;103434;1252;1005334;-75
2024/02/07 08:31:17;;;;;;;5.00;2.90;;;;;;;-128.00;-1.00;-1.00;104010;1254;1003798;-79
2024/02/07 08:33:44;;;;;;;8.20;3.50;;;;;;;-128.00;-1.00;-1.00;103619;1253;1005771;-74
2024/02/07 08:36:11;;;;;;;9.20;3.20;;;;;;;-128.00;-1.00;-1.00;103907;1253;1004109;-75
2024/02/07 08:38:37;;;;;;;6.40;2.20;;;;;;;-128.00;-1.00;-1.00;103729;1251;1004011;-79
2024/02/07 08:41:04;;;;;;;5.90;2.80;;;;;;;-128.00;-1.00;-1.00;103569;1254;1004588;-80
2024/02/07 08:43:30;;;;;;;4.60;2.60;;;;;;;-128.00;-1.00;-1.00;103549;1253;1004717;-79
2024/02/07 08:45:57;;;;;;;4.10;2.30;;;;;;;-128.00;-1.00;-1.00;103456;1254;1005368;-79
2024/02/07 08:48:24;;;;;;;6.70;3.50;;;;;;;-128.00;-1.00;-1.00;103452;1253;1005207;-75
2024/02/07 08:50:50;;;;;;;9.30;3.70;;;;;;;-128.00;-1.00;-1.00;103469;1253;1004114;-80
2024/02/07 08:53:16;;;;;;;4.20;2.40;;;;;;;-128.00;-1.00;-1.00;103381;1253;1004210;-79
2024/02/07 08:55:43;;;;;;;6.80;3.30;;;;;;;-128.00;-1.00;-1.00;103441;1252;1004740;-79
2024/02/07 08:58:09;;;;;;;25.80;17.10;;;;;;;-128.00;-1.00;-1.00;103541;1254;1004408;-79
2024/02/07 09:00:36;;;;;;;9.80;3.50;;;;;;;-128.00;-1.00;-1.00;103437;1255;1004348;-79
2024/02/07 09:03:03;;;;;;;5.00;2.30;;;;;;;-128.00;-1.00;-1.00;103386;1257;1005715;-79
2024/02/07 09:05:30;;;;;;;4.40;3.00;;;;;;;-128.00;-1.00;-1.00;103623;1253;1004413;-75
2024/02/07 09:07:56;;;;;;;8.80;3.10;;;;;;;-128.00;-1.00;-1.00;103541;1254;1003479;-79
2024/02/07 09:10:24;;;;;;;4.30;2.60;;;;;;;-128.00;-1.00;-1.00;103421;1254;1004733;-79
2024/02/07 09:12:50;;;;;;;5.40;3.10;;;;;;;-128.00;-1.00;-1.00;103437;1253;1005105;-75
2024/02/07 09:15:17;;;;;;;4.10;2.40;;;;;;;-128.00;-1.00;-1.00;103426;1254;1004419;-79
2024/02/07 09:17:43;;;;;;;10.50;4.10;;;;;;;-128.00;-1.00;-1.00;103540;1253;1004703;-80
2024/02/07 09:20:12;;;;;;;7.20;4.60;;;;;;;-128.00;-1.00;-1.00;103503;1254;1004135;-74
2024/02/07 09:22:42;;;;;;;11.00;5.60;;;;;;;-128.00;-1.00;-1.00;105633;1253;1047546;-80
2024/02/07 09:25:08;;;;;;;6.00;3.50;;;;;;;-128.00;-1.00;-1.00;105608;1252;1061967;-75
2024/02/07 09:27:35;;;;;;;9.90;3.90;;;;;;;-128.00;-1.00;-1.00;105582;1252;1004681;-79
2024/02/07 09:30:01;;;;;;;8.10;6.60;;;;;;;-128.00;-1.00;-1.00;103988;1252;1003648;-75
2024/02/07 09:32:28;;;;;;;9.90;4.90;;;;;;;-128.00;-1.00;-1.00;103412;1253;1004641;-75
2024/02/07 09:34:55;;;;;;;21.00;12.90;;;;;;;-128.00;-1.00;-1.00;103502;1253;1003649;-79
2024/02/07 09:37:22;;;;;;;6.20;2.80;;;;;;;-128.00;-1.00;-1.00;103584;1253;1004246;-75
2024/02/07 09:39:48;;;;;;;8.70;3.10;;;;;;;-128.00;-1.00;-1.00;103539;1253;1005012;-81
2024/02/07 09:42:17;;;;;;;5.30;3.20;;;;;;;-128.00;-1.00;-1.00;103481;1254;1004384;-79
2024/02/07 09:44:45;;;;;;;9.00;3.30;;;;;;;-128.00;-1.00;-1.00;103366;1253;1046763;-75
2024/02/07 09:47:16;;;;;;;3.90;3.00;;;;;;;-128.00;-1.00;-1.00;103505;1254;1004905;-75
2024/02/07 09:49:44;;;;;;;7.10;4.40;;;;;;;-128.00;-1.00;-1.00;103475;1256;1062227;-75
2024/02/07 09:52:10;;;;;;;21.20;10.20;;;;;;;-128.00;-1.00;-1.00;105495;1254;1004481;-79
2024/02/07 09:54:37;;;;;;;10.30;5.70;;;;;;;-128.00;-1.00;-1.00;105642;1253;1003197;-75
2024/02/07 09:57:04;;;;;;;13.80;5.80;;;;;;;-128.00;-1.00;-1.00;105566;1253;1004642;-79
2024/02/07 09:59:31;;;;;;;9.40;3.70;;;;;;;-128.00;-1.00;-1.00;105602;1253;1004941;-75
2024/02/07 10:01:57;;;;;;;12.60;5.10;;;;;;;-128.00;-1.00;-1.00;105507;1253;1004318;-75
2024/02/07 10:04:28;;;;;;;10.00;3.60;;;;;;;-128.00;-1.00;-1.00;105602;1253;1004013;-75
2024/02/07 10:06:55;;;;;;;8.60;4.20;;;;;;;-128.00;-1.00;-1.00;105589;1253;1059463;-75
2024/02/07 10:09:21;;;;;;;8.40;3.70;;;;;;;-128.00;-1.00;-1.00;105546;1253;1003682;-79
2024/02/07 10:11:48;;;;;;;14.80;6.10;;;;;;;-128.00;-1.00;-1.00;105547;1253;1004524;-75
2024/02/07 10:14:14;;;;;;;11.50;5.60;;;;;;;-128.00;-1.00;-1.00;105599;1253;1004169;-79
2024/02/07 10:16:41;;;;;;;16.50;5.00;;;;;;;-128.00;-1.00;-1.00;105560;1253;1004949;-75
2024/02/07 10:19:07;;;;;;;11.50;5.50;;;;;;;-128.00;-1.00;-1.00;105580;1252;1004077;-79
2024/02/07 10:21:34;;;;;;;70.40;29.30;;;;;;;-128.00;-1.00;-1.00;105571;1252;1003341;-79
2024/02/07 10:24:04;;;;;;;22.80;10.80;;;;;;;-128.00;-1.00;-1.00;105632;1252;1003928;-75
2024/02/07 10:26:30;;;;;;;11.10;5.60;;;;;;;-128.00;-1.00;-1.00;105606;1252;1061027;-79
2024/02/07 10:29:00;;;;;;;47.50;22.50;;;;;;;-128.00;-1.00;-1.00;105631;1253;1004301;-75
2024/02/07 10:31:27;;;;;;;15.30;6.60;;;;;;;-128.00;-1.00;-1.00;105280;1253;1059958;-75
2024/02/07 10:33:59;;;;;;;16.50;8.40;;;;;;;-128.00;-1.00;-1.00;103450;1253;1004088;-75
2024/02/07 10:36:26;;;;;;;8.70;5.40;;;;;;;-128.00;-1.00;-1.00;103509;1252;1047944;-74
2024/02/07 10:38:53;;;;;;;7.70;5.30;;;;;;;-128.00;-1.00;-1.00;103596;1254;1005236;-74
2024/02/07 10:41:20;;;;;;;10.00;5.70;;;;;;;-128.00;-1.00;-1.00;103336;1252;1004519;-79
2024/02/07 10:43:46;;;;;;;8.30;3.40;;;;;;;-128.00;-1.00;-1.00;103354;1254;1004114;-75
2024/02/07 10:46:14;;;;;;;7.50;3.00;;;;;;;-128.00;-1.00;-1.00;103647;1253;1004431;-75
2024/02/07 10:48:40;;;;;;;99.60;47.40;;;;;;;-128.00;-1.00;-1.00;103451;1258;1003974;-75
2024/02/07 10:51:07;;;;;;;15.40;6.20;;;;;;;-128.00;-1.00;-1.00;103358;1257;1003926;-79
2024/02/07 10:53:33;;;;;;;7.20;4.00;;;;;;;-128.00;-1.00;-1.00;103532;1255;1004662;-75
2024/02/07 10:56:00;;;;;;;5.50;3.50;;;;;;;-128.00;-1.00;-1.00;103423;1253;1004390;-74
2024/02/07 10:58:27;;;;;;;24.80;10.70;;;;;;;-128.00;-1.00;-1.00;103537;1253;1004875;-77
2024/02/07 11:00:54;;;;;;;11.00;6.20;;;;;;;-128.00;-1.00;-1.00;103500;1253;1004855;-81
2024/02/07 11:03:22;;;;;;;7.80;3.60;;;;;;;-128.00;-1.00;-1.00;103517;1253;1003956;-78
2024/02/07 11:05:49;;;;;;;10.30;5.00;;;;;;;-128.00;-1.00;-1.00;103522;1253;1005098;-75
2024/02/07 11:08:16;;;;;;;9.50;3.70;;;;;;;-128.00;-1.00;-1.00;103551;1253;1004289;-78
2024/02/07 11:10:42;;;;;;;6.80;4.00;;;;;;;-128.00;-1.00;-1.00;103415;1257;1005723;-76
2024/02/07 11:13:10;;;;;;;13.40;8.00;;;;;;;-128.00;-1.00;-1.00;103594;1253;1005110;-75
2024/02/07 11:15:37;;;;;;;10.10;5.90;;;;;;;-128.00;-1.00;-1.00;103607;1256;1004783;-81
2024/02/07 11:18:04;;;;;;;10.30;4.70;;;;;;;-128.00;-1.00;-1.00;103605;1254;1004435;-75
2024/02/07 11:20:30;;;;;;;9.60;3.80;;;;;;;-128.00;-1.00;-1.00;103429;1253;1004639;-75
2024/02/07 11:22:57;;;;;;;9.20;3.70;;;;;;;-128.00;-1.00;-1.00;103326;1253;1004818;-76
2024/02/07 11:25:24;;;;;;;7.10;3.10;;;;;;;-128.00;-1.00;-1.00;103380;1253;1005117;-81
2024/02/07 11:27:51;;;;;;;5.50;3.40;;;;;;;-128.00;-1.00;-1.00;103568;1252;1004159;-75
2024/02/07 11:30:19;;;;;;;6.00;3.40;;;;;;;-128.00;-1.00;-1.00;105601;1253;1004117;-80
2024/02/07 11:32:48;;;;;;;14.00;6.90;;;;;;;-128.00;-1.00;-1.00;105534;1253;1005434;-79
2024/02/07 11:35:18;;;;;;;8.50;4.80;;;;;;;-128.00;-1.00;-1.00;105577;1253;1046320;-75
2024/02/07 11:37:48;;;;;;;9.50;4.90;;;;;;;-128.00;-1.00;-1.00;105576;1253;1046945;-80
2024/02/07 11:40:14;;;;;;;9.20;4.90;;;;;;;-128.00;-1.00;-1.00;105602;1252;1061631;-75
2024/02/07 11:42:41;;;;;;;10.70;4.60;;;;;;;-128.00;-1.00;-1.00;104873;1252;1004229;-79
2024/02/07 11:45:14;;;;;;;10.30;5.00;;;;;;;-128.00;-1.00;-1.00;103520;1253;1005712;-79
2024/02/07 11:47:42;;;;;;;8.40;6.00;;;;;;;-128.00;-1.00;-1.00;103550;1253;1045475;-79
2024/02/07 11:50:14;;;;;;;11.80;5.30;;;;;;;-128.00;-1.00;-1.00;103570;1253;1004298;-79
2024/02/07 11:52:41;;;;;;;8.40;4.70;;;;;;;-128.00;-1.00;-1.00;103455;1252;1063555;-75
2024/02/07 11:55:14;;;;;;;6.10;3.80;;;;;;;-128.00;-1.00;-1.00;103482;1253;1004152;-79
2024/02/07 11:57:42;;;;;;;11.00;6.40;;;;;;;-128.00;-1.00;-1.00;103706;1253;1060219;-75
2024/02/07 12:00:16;;;;;;;52.20;24.10;;;;;;;-128.00;-1.00;-1.00;103475;1252;1004602;-79
2024/02/07 12:02:47;;;;;;;82.80;31.70;;;;;;;-128.00;-1.00;-1.00;105571;1252;1046053;-76
2024/02/07 12:05:16;;;;;;;17.00;8.20;;;;;;;-128.00;-1.00;-1.00;105585;1252;1061670;-75
2024/02/07 12:07:43;;;;;;;11.00;4.30;;;;;;;-128.00;-1.00;-1.00;105548;1253;1058380;-75
2024/02/07 12:10:10;;;;;;;21.70;10.80;;;;;;;-128.00;-1.00;-1.00;105573;1253;1004763;-75
2024/02/07 12:12:37;;;;;;;13.70;5.30;;;;;;;-128.00;-1.00;-1.00;105611;1253;1004968;-75
2024/02/07 12:15:04;;;;;;;11.40;5.20;;;;;;;-128.00;-1.00;-1.00;105607;1252;1003430;-75
2024/02/07 12:17:36;;;;;;;5.80;3.10;;;;;;;-128.00;-1.00;-1.00;105547;1252;1003902;-75